Time;durP1;ratioP1;P1;durP2;ratioP2;P2;SDS_P1;SDS_P2;PMS_P1;PMS_P2;Temp;Humidity;BMP_temperature;BMP_pressure;BME280_temperature;BME280_humidity;BME280_pressure;Samples;Min_cycle;Max_cycle;Signal;HPM_P1;HPM_P2
2021/06/05 00:00:17;;;;;;;31.70;23.45;;;18.40;99.90;;;;;;12382718;28;20058;-43
2021/06/05 00:06:21;;;;;;;27.58;21.83;;;18.40;99.90;;;;;;12385187;28;20049;-42
2021/06/05 00:12:26;;;;;;;28.52;21.52;;;18.50;99.90;;;;;;12390499;28;20128;-45
2021/06/05 00:18:29;;;;;;;25.73;22.95;;;18.60;99.90;;;;;;12393537;28;20058;-43
2021/06/05 00:24:31;;;;;;;27.25;24.33;;;18.60;99.90;;;;;;12394857;28;20058;-44
2021/06/05 00:30:33;;;;;;;28.58;22.67;;;18.60;99.90;;;;;;12390962;28;20092;-45
2021/06/05 00:36:35;;;;;;;26.35;21.85;;;18.60;99.90;;;;;;12389107;28;20073;-43
2021/06/05 00:42:37;;;;;;;24.08;21.33;;;18.60;99.90;;;;;;12387504;28;20169;-42
2021/06/05 00:48:39;;;;;;;24.05;21.30;;;18.60;99.90;;;;;;12386883;28;20436;-42
2021/06/05 00:54:41;;;;;;;23.45;20.95;;;18.70;99.90;;;;;;12388292;28;20150;-43
2021/06/05 01:00:51;;;;;;;26.17;21.85;;;18.70;99.90;;;;;;12384996;28;20376;-42
2021/06/05 01:07:25;;;;;;;22.10;19.58;;;18.60;99.90;;;;;;12387266;28;20581;-43
2021/06/05 01:14:02;;;;;;;20.05;17.83;;;18.70;99.90;;;;;;12388041;28;20049;-43
2021/06/05 01:20:14;;;;;;;25.00;21.52;;;18.70;99.90;;;;;;12390193;28;20099;-47
2021/06/05 01:26:29;;;;;;;28.08;22.30;;;18.60;99.90;;;;;;12388154;28;20428;-43
2021/06/05 01:32:32;;;;;;;28.63;19.88;;;18.50;99.90;;;;;;12389607;28;20088;-43
2021/06/05 01:38:42;;;;;;;25.30;18.27;;;18.40;99.90;;;;;;12386233;28;20145;-44
2021/06/05 01:44:50;;;;;;;24.58;19.80;;;18.20;99.90;;;;;;12387162;28;20058;-45
2021/06/05 01:50:53;;;;;;;24.08;21.55;;;18.00;99.90;;;;;;12385784;28;20115;-43
2021/06/05 01:57:00;;;;;;;28.10;19.90;;;18.00;99.90;;;;;;12385504;28;20217;-44
2021/06/05 02:03:04;;;;;;;25.88;20.60;;;18.10;99.90;;;;;;12390040;28;20100;-42
2021/06/05 02:09:06;;;;;;;;;;;18.00;99.90;;;;;;12388786;28;20054;-42
2021/06/05 02:15:08;;;;;;;22.38;20.02;;;17.90;99.90;;;;;;12385893;28;20054;-42
2021/06/05 02:21:16;;;;;;;27.50;20.10;;;17.80;99.90;;;;;;12385811;28;20351;-42
2021/06/05 02:27:20;;;;;;;26.75;19.30;;;18.00;99.90;;;;;;12386715;28;20058;-42
2021/06/05 02:33:23;;;;;;;22.05;17.70;;;18.00;99.90;;;;;;12387126;28;20050;-45
2021/06/05 02:39:27;;;;;;;19.80;17.70;;;18.00;99.90;;;;;;12397296;28;20785;-43
2021/06/05 02:45:37;;;;;;;22.10;19.43;;;17.70;99.90;;;;;;12393739;28;20051;-44
2021/06/05 02:51:50;;;;;;;24.08;21.45;;;17.60;99.90;;;;;;12394206;28;20042;-46
2021/06/05 02:57:53;;;;;;;20.87;18.63;;;17.60;99.90;;;;;;12394799;28;20073;-49
2021/06/05 03:03:54;;;;;;;24.33;21.75;;;17.70;99.90;;;;;;12394376;28;20793;-49
2021/06/05 03:09:56;;;;;;;23.45;21.05;;;17.70;99.90;;;;;;12399199;28;20157;-45
2021/06/05 03:15:59;;;;;;;22.90;20.20;;;17.80;99.90;;;;;;12395368;28;20058;-43
2021/06/05 03:22:03;;;;;;;27.23;19.67;;;17.90;99.90;;;;;;12396040;28;20046;-44
2021/06/05 03:28:06;;;;;;;25.58;22.02;;;17.80;99.90;;;;;;12397400;28;20350;-44
2021/06/05 03:34:08;;;;;;;26.83;23.77;;;17.90;99.90;;;;;;12392289;28;20053;-43
2021/06/05 03:40:14;;;;;;;30.92;20.42;;;17.90;99.90;;;;;;12394753;28;20144;-48
2021/06/05 03:46:16;;;;;;;25.80;18.38;;;17.90;99.90;;;;;;12401774;28;20478;-43
2021/06/05 03:52:22;;;;;;;21.13;18.52;;;18.00;99.90;;;;;;12396777;28;20057;-42
2021/06/05 03:58:40;;;;;;;23.85;20.35;;;18.00;99.90;;;;;;12389900;28;20627;-43
2021/06/05 04:04:42;;;;;;;21.75;19.42;;;18.10;99.90;;;;;;12390300;28;20061;-43
2021/06/05 04:10:44;;;;;;;23.30;19.02;;;18.10;99.90;;;;;;12390128;28;20137;-46
2021/06/05 04:16:46;;;;;;;21.70;17.60;;;18.10;99.90;;;;;;12390617;28;20795;-42
2021/06/05 04:22:48;;;;;;;19.17;16.98;;;18.00;99.90;;;;;;12391353;28;20055;-43
2021/06/05 04:28:50;;;;;;;19.52;17.55;;;18.00;99.90;;;;;;12390597;28;20137;-46
2021/06/05 04:34:52;;;;;;;17.77;15.88;;;18.00;99.90;;;;;;12387254;28;20507;-42
2021/06/05 04:40:54;;;;;;;16.45;14.75;;;18.00;99.90;;;;;;12392367;28;20061;-46
2021/06/05 04:46:56;;;;;;;25.85;21.40;;;18.20;99.90;;;;;;12385613;28;20044;-43
2021/06/05 04:52:58;;;;;;;25.73;22.98;;;18.10;99.90;;;;;;12387917;28;20129;-42
2021/06/05 04:59:01;;;;;;;23.73;21.27;;;18.20;99.90;;;;;;12392361;28;20513;-43
2021/06/05 05:05:05;;;;;;;23.38;20.90;;;18.20;99.90;;;;;;12386042;28;20050;-43
2021/06/05 05:11:08;;;;;;;27.40;23.67;;;18.40;99.90;;;;;;12385833;28;20480;-42
2021/06/05 05:17:10;;;;;;;25.07;22.00;;;18.40;99.90;;;;;;12388627;28;20479;-47
2021/06/05 05:23:13;;;;;;;26.00;22.88;;;18.30;99.90;;;;;;12386738;28;20050;-42
2021/06/05 05:29:15;;;;;;;25.70;22.65;;;18.40;99.90;;;;;;12387210;28;20050;-43
2021/06/05 05:35:17;;;;;;;28.50;23.90;;;18.50;99.90;;;;;;12380458;28;20104;-45
2021/06/05 05:41:21;;;;;;;26.70;23.95;;;18.60;99.90;;;;;;12372002;28;20722;-42
2021/06/05 05:47:23;;;;;;;29.23;24.45;;;18.60;99.90;;;;;;12374305;28;20062;-45
2021/06/05 05:53:25;;;;;;;27.67;24.77;;;18.60;99.90;;;;;;12385107;28;20080;-46
2021/06/05 05:59:27;;;;;;;28.75;25.00;;;18.60;99.90;;;;;;12385875;28;20065;-44
2021/06/05 06:05:29;;;;;;;29.85;26.40;;;18.60;99.90;;;;;;12375360;28;20073;-43
2021/06/05 06:11:31;;;;;;;30.77;27.58;;;18.70;99.90;;;;;;12384436;28;20078;-43
2021/06/05 06:17:33;;;;;;;29.55;26.35;;;18.90;99.90;;;;;;12397839;28;20057;-46
2021/06/05 06:23:39;;;;;;;30.17;26.92;;;19.10;99.90;;;;;;12393557;28;20054;-42
2021/06/05 06:29:41;;;;;;;29.75;25.52;;;19.10;99.90;;;;;;12393012;28;20128;-43
2021/06/05 06:35:43;;;;;;;29.23;25.95;;;19.30;99.90;;;;;;12394935;28;20050;-43
2021/06/05 06:41:45;;;;;;;27.38;23.67;;;19.50;99.90;;;;;;12391501;28;20111;-43
2021/06/05 06:47:49;;;;;;;25.95;19.48;;;19.90;99.90;;;;;;12391419;28;20110;-45
2021/06/05 06:53:51;;;;;;;;;;;20.00;99.90;;;;;;12392824;28;20747;-42
2021/06/05 06:59:52;;;;;;;21.58;18.40;;;20.20;99.90;;;;;;12396420;28;20053;-43
2021/06/05 07:05:54;;;;;;;22.77;18.13;;;20.30;99.90;;;;;;12396337;28;20510;-42
2021/06/05 07:11:56;;;;;;;24.65;20.27;;;20.40;99.90;;;;;;12394945;28;20045;-43
2021/06/05 07:17:59;;;;;;;25.00;22.23;;;20.30;99.90;;;;;;12393624;28;20535;-46
2021/06/05 07:24:01;;;;;;;20.57;18.43;;;20.00;99.90;;;;;;12390803;28;20512;-43
2021/06/05 07:30:05;;;;;;;26.92;22.50;;;20.20;99.90;;;;;;12391319;28;20156;-44
2021/06/05 07:36:11;;;;;;;22.50;19.17;;;20.20;99.90;;;;;;12385693;28;20133;-43
2021/06/05 07:42:14;;;;;;;21.92;18.67;;;20.20;99.90;;;;;;12389525;28;20709;-43
2021/06/05 07:48:16;;;;;;;23.10;20.70;;;20.40;99.90;;;;;;12392691;28;20064;-42
2021/06/05 07:54:18;;;;;;;21.58;19.23;;;20.50;99.90;;;;;;12388726;28;20062;-43
2021/06/05 08:00:24;;;;;;;22.70;20.00;;;20.30;99.90;;;;;;12375321;28;20049;-43
2021/06/05 08:06:26;;;;;;;24.25;18.48;;;20.40;99.90;;;;;;12391541;28;20521;-43
2021/06/05 08:12:28;;;;;;;25.40;22.73;;;20.40;99.90;;;;;;12403719;28;20936;-43
2021/06/05 08:18:30;;;;;;;25.08;22.15;;;20.50;99.90;;;;;;12388805;28;20466;-42
2021/06/05 08:24:31;;;;;;;22.48;20.02;;;20.80;99.90;;;;;;12384272;28;20053;-44
2021/06/05 08:30:43;;;;;;;22.83;20.35;;;20.80;99.90;;;;;;12387128;28;20145;-42
2021/06/05 08:36:46;;;;;;;22.75;20.15;;;20.90;99.90;;;;;;12389922;28;20065;-43
2021/06/05 08:42:50;;;;;;;23.77;20.17;;;20.80;99.90;;;;;;12388067;28;20585;-43
2021/06/05 08:48:53;;;;;;;20.67;18.45;;;20.80;99.90;;;;;;12386986;28;20553;-43
2021/06/05 08:55:21;;;;;;;21.23;19.02;;;20.70;99.90;;;;;;12381993;28;20095;-45
2021/06/05 09:01:44;;;;;;;26.13;23.33;;;20.90;99.90;;;;;;12381164;28;20141;-45
2021/06/05 09:07:47;;;;;;;25.77;23.08;;;21.20;99.90;;;;;;12386695;28;20053;-45
2021/06/05 09:13:49;;;;;;;31.05;27.90;;;21.00;99.90;;;;;;12389185;28;20046;-45
2021/06/05 09:20:01;;;;;;;28.02;24.95;;;21.00;99.90;;;;;;12384721;28;20069;-46
2021/06/05 09:26:23;;;;;;;27.63;24.95;;;21.40;99.90;;;;;;12381445;28;20045;-40
2021/06/05 09:32:44;;;;;;;27.98;25.13;;;21.60;99.90;;;;;;12386205;28;20152;-41
2021/06/05 09:39:13;;;;;;;30.95;27.77;;;21.40;99.90;;;;;;12389379;28;20087;-40
2021/06/05 09:45:23;;;;;;;35.13;31.73;;;21.70;99.90;;;;;;12387575;28;20672;-41
2021/06/05 09:51:33;;;;;;;37.85;34.10;;;21.60;99.90;;;;;;12391169;28;20075;-42
2021/06/05 09:57:37;;;;;;;37.10;33.45;;;21.70;99.90;;;;;;12395243;28;20600;-41
2021/06/05 10:03:38;;;;;;;;;;;21.80;99.90;;;;;;12395042;28;20135;-44
2021/06/05 10:09:42;;;;;;;52.40;47.08;;;21.60;99.90;;;;;;12394193;28;19975;-41
2021/06/05 10:15:56;;;;;;;55.83;50.33;;;21.00;99.90;;;;;;12388562;28;20144;-41
2021/06/05 10:21:58;;;;;;;58.65;52.60;;;20.50;99.90;;;;;;12390067;28;20046;-40
2021/06/05 10:28:17;;;;;;;54.75;48.88;;;20.30;99.90;;;;;;12390632;28;20093;-40
2021/06/05 10:34:28;;;;;;;53.63;48.00;;;20.30;99.90;;;;;;12388468;28;20120;-41
2021/06/05 10:40:31;;;;;;;48.42;43.50;;;20.50;99.90;;;;;;12389179;28;20053;-45
2021/06/05 10:46:57;;;;;;;42.30;38.20;;;20.60;99.90;;;;;;12391625;28;20046;-42
2021/06/05 10:53:30;;;;;;;32.25;29.15;;;20.70;99.90;;;;;;12378058;28;20445;-41
2021/06/05 10:59:58;;;;;;;30.42;27.35;;;21.00;99.90;;;;;;12385118;28;20054;-41
2021/06/05 11:06:10;;;;;;;29.02;26.08;;;21.70;99.90;;;;;;12390216;28;20078;-41
2021/06/05 11:12:15;;;;;;;26.77;24.23;;;22.20;99.90;;;;;;12406685;28;20569;-41
2021/06/05 11:18:51;;;;;;;30.83;27.77;;;22.40;99.90;;;;;;12435944;28;20063;-40
2021/06/05 11:25:08;;;;;;;29.35;26.58;;;22.30;99.90;;;;;;12428353;28;20057;-41
2021/06/05 11:31:58;;;;;;;31.45;28.40;;;22.10;99.90;;;;;;12423650;28;20046;-42
2021/06/05 11:38:04;;;;;;;28.67;25.88;;;22.00;99.90;;;;;;12388069;28;20490;-42
2021/06/05 11:44:45;;;;;;;30.13;27.15;;;22.10;99.90;;;;;;12384549;28;20054;-42
2021/06/05 11:51:06;;;;;;;32.38;29.17;;;22.20;99.90;;;;;;12380398;28;20046;-41
2021/06/05 11:57:17;;;;;;;28.15;25.20;;;22.30;99.90;;;;;;12386574;28;20058;-41
2021/06/05 12:03:50;;;;;;;31.10;28.02;;;22.40;99.90;;;;;;12385371;28;20426;-41
2021/06/05 12:09:56;;;;;;;31.23;28.13;;;23.70;99.90;;;;;;12383727;28;20793;-43
2021/06/05 12:16:15;;;;;;;30.25;27.20;;;24.50;99.90;;;;;;12384815;28;20099;-41
2021/06/05 12:22:20;;;;;;;29.15;26.23;;;24.60;99.90;;;;;;12384006;28;20046;-41
2021/06/05 12:28:27;;;;;;;30.08;26.90;;;24.70;99.90;;;;;;12383452;28;20140;-40
2021/06/05 12:34:29;;;;;;;35.97;32.47;;;24.10;99.90;;;;;;12385280;28;20045;-40
2021/06/05 12:40:40;;;;;;;35.95;32.35;;;23.90;99.90;;;;;;12383288;28;21026;-40
2021/06/05 12:46:42;;;;;;;31.00;28.00;;;24.30;99.90;;;;;;12385505;28;20050;-41
2021/06/05 12:52:46;;;;;;;37.40;33.40;;;24.90;99.90;;;;;;12376417;28;20145;-42
2021/06/05 12:58:55;;;;;;;33.97;30.33;;;25.10;99.90;;;;;;12378121;28;20499;-41
2021/06/05 13:05:18;;;;;;;36.80;32.95;;;25.30;99.90;;;;;;12380207;28;20449;-43
2021/06/05 13:11:56;;;;;;;33.23;29.67;;;25.40;99.90;;;;;;12382070;28;20121;-41
2021/06/05 13:17:59;;;;;;;38.42;34.03;;;25.60;99.90;;;;;;12378675;28;20054;-41
2021/06/05 13:24:14;;;;;;;33.60;28.95;;;25.60;99.90;;;;;;12376208;28;20057;-41
2021/06/05 13:30:39;;;;;;;33.30;28.60;;;25.40;99.90;;;;;;12381852;28;20156;-42
2021/06/05 13:36:41;;;;;;;24.27;21.85;;;25.40;99.90;;;;;;12384959;28;20060;-41
2021/06/05 13:42:46;;;;;;;24.27;21.67;;;25.90;99.90;;;;;;12378822;28;20057;-42
2021/06/05 13:48:48;;;;;;;18.77;16.60;;;26.10;99.90;;;;;;12379692;28;20467;-41
2021/06/05 13:54:50;;;;;;;24.10;19.40;;;26.20;99.90;;;;;;12379157;28;20108;-42
2021/06/05 14:00:52;;;;;;;25.20;22.50;;;26.10;99.90;;;;;;12379978;28;20046;-41
2021/06/05 14:06:54;;;;;;;22.35;20.02;;;26.00;99.90;;;;;;12378948;28;20544;-42
2021/06/05 14:12:57;;;;;;;27.42;20.42;;;26.00;99.90;;;;;;12380206;28;20113;-41
2021/06/05 14:18:59;;;;;;;21.67;19.27;;;25.00;99.90;;;;;;12381682;28;20091;-40
2021/06/05 14:25:08;;;;;;;20.60;17.48;;;25.10;99.90;;;;;;12380320;28;20687;-44
2021/06/05 14:31:11;;;;;;;19.45;17.35;;;25.30;99.90;;;;;;12377988;28;20046;-42
2021/06/05 14:37:13;;;;;;;16.92;15.23;;;25.30;99.90;;;;;;12392589;28;20526;-40
2021/06/05 14:43:15;;;;;;;18.33;16.08;;;25.30;99.90;;;;;;12388047;28;20084;-41
2021/06/05 14:49:18;;;;;;;18.17;15.85;;;25.10;99.90;;;;;;12369335;28;20945;-44
2021/06/05 14:55:23;;;;;;;18.37;15.37;;;25.10;99.90;;;;;;12372158;28;20172;-41
2021/06/05 15:01:25;;;;;;;16.63;13.27;;;25.00;99.90;;;;;;12386485;28;20050;-41
2021/06/05 15:07:27;;;;;;;15.43;13.13;;;24.70;99.90;;;;;;12385629;28;20053;-40
2021/06/05 15:13:29;;;;;;;20.20;16.08;;;24.30;99.90;;;;;;12387262;28;20502;-41
2021/06/05 15:19:31;;;;;;;23.27;18.80;;;24.10;99.90;;;;;;12386749;28;20058;-41
2021/06/05 15:25:38;;;;;;;28.03;19.83;;;23.70;99.90;;;;;;12382498;28;20050;-41
2021/06/05 15:31:40;;;;;;;20.13;17.25;;;23.70;99.90;;;;;;12387738;28;20807;-41
2021/06/05 15:37:42;;;;;;;16.90;12.68;;;23.50;99.90;;;;;;12384261;28;20104;-42
2021/06/05 15:43:45;;;;;;;14.95;13.35;;;23.20;99.90;;;;;;12389287;28;20085;-42
2021/06/05 15:49:47;;;;;;;18.00;14.73;;;22.90;99.90;;;;;;12395176;28;20068;-42
2021/06/05 15:55:49;;;;;;;17.63;14.48;;;22.60;99.90;;;;;;12388475;28;20046;-43
2021/06/05 16:01:51;;;;;;;15.88;12.02;;;22.30;99.90;;;;;;12385021;28;20552;-40
2021/06/05 16:07:53;;;;;;;16.85;13.75;;;22.10;99.90;;;;;;12390598;28;22051;-41
2021/06/05 16:13:55;;;;;;;30.13;13.52;;;21.70;99.90;;;;;;12384809;28;20050;-39
2021/06/05 16:19:56;;;;;;;24.73;12.75;;;21.10;99.90;;;;;;12382230;28;20046;-40
2021/06/05 16:25:59;;;;;;;22.42;15.68;;;20.20;99.90;;;;;;12382410;28;20045;-41
2021/06/05 16:32:04;;;;;;;20.55;17.17;;;19.50;99.90;;;;;;12381863;28;20699;-39
2021/06/05 16:38:06;;;;;;;22.90;20.27;;;19.40;99.90;;;;;;12389941;28;21579;-40
2021/06/05 16:44:08;;;;;;;31.50;21.52;;;19.30;99.90;;;;;;12386388;28;20054;-41
2021/06/05 16:50:16;;;;;;;24.25;21.20;;;19.20;99.90;;;;;;12377193;28;20107;-41
2021/06/05 16:56:21;;;;;;;26.05;22.00;;;19.20;99.90;;;;;;12374903;28;20514;-42
2021/06/05 17:02:25;;;;;;;24.48;21.95;;;19.20;99.90;;;;;;12381986;28;20057;-40
2021/06/05 17:08:46;;;;;;;26.95;21.98;;;19.30;99.90;;;;;;12381365;28;20134;-40
2021/06/05 17:14:48;;;;;;;32.55;22.88;;;19.20;99.90;;;;;;12379094;28;20133;-41
2021/06/05 17:20:51;;;;;;;26.90;21.48;;;19.20;99.90;;;;;;12372757;28;20608;-40
2021/06/05 17:26:54;;;;;;;23.02;19.00;;;19.30;99.90;;;;;;12379014;28;20050;-40
2021/06/05 17:32:56;;;;;;;21.00;18.27;;;19.50;99.90;;;;;;12376907;28;20104;-41
2021/06/05 17:39:01;;;;;;;21.33;18.55;;;19.50;99.90;;;;;;12377918;28;20058;-40
2021/06/05 17:45:06;;;;;;;19.92;15.75;;;19.40;99.90;;;;;;12379999;28;20056;-42
2021/06/05 17:51:15;;;;;;;20.90;16.58;;;19.40;99.90;;;;;;12374542;28;20050;-40
2021/06/05 17:57:17;;;;;;;19.38;17.00;;;19.40;99.90;;;;;;12381672;28;20145;-40
2021/06/05 18:03:32;;;;;;;18.70;15.43;;;19.40;99.90;;;;;;12374882;28;20046;-42
2021/06/05 18:09:34;;;;;;;20.30;18.10;;;19.40;99.90;;;;;;12387205;28;20053;-41
2021/06/05 18:15:40;;;;;;;21.80;17.33;;;19.20;99.90;;;;;;12381333;28;20101;-40
2021/06/05 18:21:44;;;;;;;21.50;17.30;;;19.20;99.90;;;;;;12387063;28;20498;-41
2021/06/05 18:27:50;;;;;;;;;;;19.40;99.90;;;;;;12391471;28;20397;-40
2021/06/05 18:33:53;;;;;;;26.33;22.40;;;19.40;99.90;;;;;;12390071;28;19976;-40
2021/06/05 18:39:54;;;;;;;28.37;23.90;;;19.40;99.90;;;;;;12390767;28;20043;-42
2021/06/05 18:45:58;;;;;;;27.20;22.40;;;19.40;99.90;;;;;;12385184;28;20081;-40
2021/06/05 18:52:00;;;;;;;25.85;22.38;;;19.50;99.90;;;;;;12388824;28;20050;-41
2021/06/05 18:58:03;;;;;;;25.92;23.05;;;19.40;99.90;;;;;;12389762;28;20054;-40
2021/06/05 19:04:08;;;;;;;27.48;23.42;;;19.10;99.90;;;;;;12389522;28;20124;-41
2021/06/05 19:10:11;;;;;;;26.95;22.63;;;19.10;99.90;;;;;;12387206;28;20073;-41
2021/06/05 19:16:19;;;;;;;25.38;21.30;;;19.20;99.90;;;;;;12388608;28;20074;-40
2021/06/05 19:22:21;;;;;;;25.85;21.77;;;19.30;99.90;;;;;;12390925;28;20054;-40
2021/06/05 19:28:23;;;;;;;27.25;20.45;;;19.00;99.90;;;;;;12381271;28;20050;-41
2021/06/05 19:34:26;;;;;;;27.70;20.05;;;19.00;99.90;;;;;;12387573;28;20503;-39
2021/06/05 19:40:30;;;;;;;26.88;21.45;;;19.00;99.90;;;;;;12384994;28;20123;-43
2021/06/05 19:46:33;;;;;;;;;;;18.90;99.90;;;;;;12391192;28;20127;-40
2021/06/05 19:52:35;;;;;;;25.38;22.80;;;18.80;99.90;;;;;;12387419;28;19933;-40
2021/06/05 19:58:38;;;;;;;23.45;20.65;;;18.70;99.90;;;;;;12389690;28;20054;-41
2021/06/05 20:04:41;;;;;;;22.42;19.02;;;18.50;99.90;;;;;;12388536;28;20042;-40
2021/06/05 20:10:43;;;;;;;27.75;22.75;;;18.50;99.90;;;;;;12384413;28;20053;-41
2021/06/05 20:16:48;;;;;;;24.02;20.10;;;18.50;99.90;;;;;;12386573;28;20429;-42
2021/06/05 20:22:53;;;;;;;21.83;19.00;;;18.50;99.90;;;;;;12414287;28;21680;-40
2021/06/05 20:28:57;;;;;;;28.05;20.33;;;18.50;99.90;;;;;;12387354;28;20137;-39
2021/06/05 20:34:59;;;;;;;22.38;19.98;;;18.40;99.90;;;;;;12388473;28;20093;-43
2021/06/05 20:41:03;;;;;;;23.88;20.42;;;18.50;99.90;;;;;;12389998;28;20559;-40
2021/06/05 20:47:05;;;;;;;23.27;19.37;;;18.40;99.90;;;;;;12385536;28;20045;-39
2021/06/05 20:53:11;;;;;;;25.38;20.80;;;18.30;99.90;;;;;;12386221;28;20378;-39
2021/06/05 20:59:13;;;;;;;27.67;21.02;;;18.30;99.90;;;;;;12387544;28;20479;-39
2021/06/05 21:05:15;;;;;;;24.17;20.30;;;18.00;99.90;;;;;;12385143;28;20062;-41
2021/06/05 21:11:18;;;;;;;23.30;20.00;;;18.00;99.90;;;;;;12383972;28;20079;-40
2021/06/05 21:17:19;;;;;;;26.00;21.60;;;17.80;99.90;;;;;;12387504;28;20110;-40
2021/06/05 21:23:24;;;;;;;27.50;22.08;;;17.80;99.90;;;;;;12390748;28;20733;-40
2021/06/05 21:29:25;;;;;;;26.65;21.60;;;17.80;99.90;;;;;;12385482;28;20103;-40
2021/06/05 21:35:29;;;;;;;29.27;22.50;;;17.80;99.90;;;;;;12389047;28;20465;-40
2021/06/05 21:41:31;;;;;;;29.80;21.85;;;17.70;99.90;;;;;;12384330;28;20053;-43
2021/06/05 21:47:33;;;;;;;27.40;22.15;;;17.70;99.90;;;;;;12386162;28;20556;-41
2021/06/05 21:53:36;;;;;;;23.60;20.50;;;17.70;99.90;;;;;;12379672;28;20461;-41
2021/06/05 21:59:37;;;;;;;32.35;24.55;;;17.60;99.90;;;;;;12382465;28;20120;-41
2021/06/05 22:05:49;;;;;;;31.92;23.95;;;17.50;99.90;;;;;;12381771;28;20050;-40
2021/06/05 22:11:54;;;;;;;37.13;27.52;;;17.70;99.90;;;;;;12383849;28;20054;-41
2021/06/05 22:17:56;;;;;;;35.97;26.40;;;17.40;99.90;;;;;;12385154;28;20092;-41
2021/06/05 22:24:02;;;;;;;48.47;32.50;;;17.40;99.90;;;;;;12384102;28;20054;-39
2021/06/05 22:30:13;;;;;;;43.92;31.25;;;17.30;99.90;;;;;;12385508;28;20103;-40
2021/06/05 22:36:16;;;;;;;45.70;31.55;;;17.30;99.90;;;;;;12380978;28;20056;-40
2021/06/05 22:42:18;;;;;;;45.00;32.00;;;17.40;99.90;;;;;;12386444;28;20054;-40
2021/06/05 22:48:23;;;;;;;46.47;30.45;;;17.50;99.90;;;;;;12386753;28;20053;-40
2021/06/05 22:54:30;;;;;;;50.95;31.95;;;17.50;99.90;;;;;;12386881;28;20993;-39
2021/06/05 23:00:36;;;;;;;60.50;37.35;;;17.50;99.90;;;;;;12389086;28;20133;-40
2021/06/05 23:06:40;;;;;;;52.78;33.65;;;17.50;99.90;;;;;;12397266;28;20104;-40
2021/06/05 23:12:42;;;;;;;53.35;35.13;;;17.50;99.90;;;;;;12397251;28;20082;-39
2021/06/05 23:18:45;;;;;;;59.47;37.58;;;17.40;99.90;;;;;;12394256;28;20486;-40
2021/06/05 23:24:47;;;;;;;56.38;34.45;;;17.50;99.90;;;;;;12396112;28;20502;-40
2021/06/05 23:30:49;;;;;;;58.95;37.22;;;17.50;99.90;;;;;;12392607;28;20862;-40
2021/06/05 23:36:51;;;;;;;60.80;37.13;;;17.50;99.90;;;;;;12395138;28;20050;-40
2021/06/05 23:42:54;;;;;;;60.67;39.60;;;17.40;99.90;;;;;;12394935;28;20050;-41
2021/06/05 23:48:56;;;;;;;69.53;40.22;;;17.50;99.90;;;;;;12391321;28;20050;-40
2021/06/05 23:54:58;;;;;;;64.47;40.53;;;17.40;99.90;;;;;;12388836;28;20113;-40
